• Join FlightAware (Why Join?)
  • Login
  • US Flag 
03:40PM EDT


 

Airport Tracker/Info


-or-


 

Live Flight TrackerFlight Track Log ✈ N9877T ✈ 12-May-2013 ✈ F70 - KPOC

Flight Track Log - Related Links

Times and Time Zones

All times are in EDT time to prevent confusion due to time zone crossing. See the N9877T flight status page for this flight to view local times or setup timezone preferences in your user account.

Time Position Orientation Groundspeed Altitude Reporting Facility
EDT Latitude Longitude Course Direction KTS MPH feet Rate Location/Type
02:15PM 33.5697 -117.1619 314° West 75 86 3,800  Level Los Angeles Center
02:16PM 33.5828 -117.1844 305° West 81 93 4,100 240 Climbing Los Angeles Center
02:17PM 33.5969 -117.2069 307° West 83 96 4,400 120 Climbing Los Angeles Center
02:18PM 33.6144 -117.2328 309° West 89 102 4,400 240 Level Los Angeles Center
02:19PM 33.7147 -117.3047 314° West  Level Estimated
02:19PM 33.6314 -117.2558 311° West 93 107 4,900  Level Los Angeles Center
02:20PM 33.7381 -117.3342 314° West  Level Estimated
02:20PM 33.6547 -117.2739 327° Northwest 85 98 5,600  Level Los Angeles Center
02:21PM 33.6722 -117.2917 320° Northwest 84 97 6,000 420 Climbing Los Angeles Center
02:22PM 33.6914 -117.3103 321° Northwest 88 101 6,500 120 Climbing Los Angeles Center
02:23PM 33.7094 -117.3319 315° West 91 105 6,300  Descending Los Angeles Center
02:24PM 33.7286 -117.3533 317° Northwest 93 107 6,600 120 Climbing Los Angeles Center
02:25PM 33.7497 -117.3769 317° Northwest 101 116 6,600 -120 Level Los Angeles Center
02:26PM 33.7756 -117.4075 315° West 107 123 6,400 -120 Descending Los Angeles Center
02:27PM 33.7939 -117.4311 313° West 100 115 6,400  Level Los Angeles Center
02:28PM 33.8106 -117.4547 310° West 95 109 6,400  Level Los Angeles Center
02:29PM 33.8297 -117.4775 315° West 96 110 6,500 -60 Climbing Los Angeles Center
02:30PM 33.8519 -117.5019 318° Northwest 105 121 6,300 -360 Descending Los Angeles Center
02:31PM 33.8833 -117.5333 320° Northwest 107 123 5,800 -420 Descending Southern California TRACON
02:32PM 33.9000 -117.5500 320° Northwest 105 121 5,400 -420 Descending Southern California TRACON
02:33PM 33.9333 -117.5667 337° Northwest 104 120 5,000 -480 Descending Southern California TRACON
02:34PM 33.9500 -117.5833 320° Northwest 105 121 4,600 -300 Descending Southern California TRACON
02:35PM 33.9833 -117.5667 23° Northeast 95 109 4,500 -60 Descending Southern California TRACON
02:36PM 34.0000 -117.5833 320° Northwest 92 106 4,500 -60 Level Southern California TRACON
02:37PM 34.0333 -117.6000 337° Northwest 91 105 4,400 -120 Descending Southern California TRACON
02:38PM 34.0500 -117.6000 360° North 88 101 4,300 -480 Descending Southern California TRACON
02:39PM 34.0833 -117.6167 338° Northwest 111 128 3,500 -600 Descending Southern California TRACON
02:40PM 34.0833 -117.6500 270° West 99 114 3,200 -420 Descending Southern California TRACON
02:41PM 34.0833 -117.6833 270° West 97 112 2,700 -480 Descending Southern California TRACON
02:42PM 34.0833 -117.7167 270° West 89 102 2,200 -540 Descending Southern California TRACON
02:43PM 34.0833 -117.7333 270° West 95 109 1,700 -540 Descending Southern California TRACON
02:44PM 34.0833 -117.7667 270° West 63 72 1,200 -540 Descending Southern California TRACON
02:47PM 34.0917 -117.7818 320° Northwest  Level Estimated